SBTT

Tabatinga Airport

Tabatinga, Brazil
TAF SBTT 252200Z 2600/2624 15005KT 9999 BKN010 TN21/2606Z TX31/2619Z BECMG 2603/2605 00000KT 8000 BKN006 BECMG 2613/2615 29005KT 9999 SCT010 RM K PEN
Issued Valid From Valid To
Apr-25 @ 22:00 UTC
(6 hours ago)
Apr-26 @ 00:00 UTC
(4 hours ago)
Apr-27 @ 00:00 UTC
(in 20 hours)
Expired Click to View Apr-26 @ 00:00 to Apr-26 @ 03:00
TAF SBTT 252200Z 2600/2624 15005KT 9999 BKN010 TN21/2606Z TX31/2619Z
Wind Visibility Clouds
150° at 5 knots 10,000+ meters
  • Broken at 1,000' AGL
Becoming Apr-26 @ 03:00 to Apr-26 @ 13:00
BECMG 2603/2605 00000KT 8000 BKN006
Visibility Clouds
7,998 meters
  • Broken at 600' AGL
Becoming Apr-26 @ 13:00 to Apr-27 @ 00:00
BECMG 2613/2615 29005KT 9999 SCT010 RM K PEN
Wind Visibility Clouds Conditions
290° at 5 knots 10,000+ meters
  • Scattered at 1,000' AGL
  • Ice pellets
TAF SBTT 252200Z 2600/2624 15005KT 9999 BKN010 TN21/2606Z TX31/2619Z BECMG 2603/2605 00000KT 8000 BKN006 BECMG 2613/2615 29005KT 9999 SCT010 RM K PEN
Issued Apr-25 @ 22:00 UTC
(6 hours ago)
Valid From Apr-26 @ 00:00 UTC
(4 hours ago)
Valid To Apr-27 @ 00:00 UTC
(in 20 hours)
Apr-26 @ 00:00 - Apr-26 @ 03:00
Wind Visibility
150° at 5 knots 10,000+ meters
Clouds
  • Broken at 1,000' AGL
Becoming Apr-26 @ 03:00 - Apr-26 @ 13:00
Clouds
  • Broken at 600' AGL
Becoming Apr-26 @ 13:00 - Apr-27 @ 00:00
Wind Visibility
290° at 5 knots 10,000+ meters
Clouds
  • Scattered at 1,000' AGL
Conditions
  • Ice pellets